Rebriha, Russia
Current Conditions -  °F | °C
As of 8:30 PM on Saturday 25 Oct 2014 (Local Time) from UNBB Reporting Station
Broken Clouds Broken Clouds  
Wind Chill: 16°   Ceiling: 2300
Heat Index: 28°   Visibility: 6mi
Dew Point: 19°   Wind: 18mph
Humidity: 69%   Direction: 250°WSW
Pressure: 29.97"   Gusts: NA
Location:  53.08°N, 82.33°E
Report Text: UNBB 251330Z 25008MPS 9999 BKN023 M02/M07 Q1015 NOSIG RMKQFE739/0985 24190055
Loading
Personal Weather Stations






























Interactive Weather Map
Tropical Storm Tracking
New forecast layout! Learn more

10-Day Weather Forecast

Advertisements
Track Severe Weather on mobile